Estación Meteorológica Peña el Pijo (Robertgarden) [ 06/25/18 14:05:06 CEST ]

Fecha Hora Presion(HPa) Temp (°C) Humedad % Rocio (°C) Viento ( m/s) Direccion Lluvia 1Hora(mm) Lluvia 24H(mm) LLuvia Total(mm)
2018-Jun-12 01:01:45 1007.800 10.3 72 5.5         266.25
2018-Jun-12 02:01:51 1007.300 9.2 76 5.1         266.25
2018-Jun-12 03:01:42 1007.200 8.3 78 4.7         266.25
2018-Jun-12 04:04:16 1006.800 7.4 81 4.4         266.25
2018-Jun-12 06:01:44 1007.000 8.3 83 5.6         266.25
2018-Jun-12 07:01:37 1007.000 9.1 84 6.5         266.25
2018-Jun-12 08:01:44 1007.500 12.1 87 10.0         266.25
2018-Jun-12 09:01:35 1007.800 16.1 71 11.1 0.6 NNW     266.25
2018-Jun-12 10:01:52 1007.900 18.2 56 9.2 2.4 NNE     266.25
2018-Jun-12 11:01:42 1007.700 20.7 49 9.6         266.25
2018-Jun-12 12:01:45 1008.000 22.2 46 10.0         266.25
2018-Jun-12 13:01:26 1008.100 24.4 42 10.6         266.25
2018-Jun-12 14:02:04 1008.300 20.5 45 8.1         266.25
2018-Jun-12 15:01:39 1008.100 21.4 45 8.9 3.0 NNE     266.25
2018-Jun-12 16:01:44 1007.600 22.1 43 8.9         266.25
2018-Jun-12 17:01:48 1007.300 25.7 36 9.4         266.25
2018-Jun-12 18:01:42 1007.300 25.0 36 8.8 1.5 NNW     266.25
2018-Jun-12 19:01:51 1007.500 22.0 40 7.8         266.25
2018-Jun-12 20:01:37 1008.000 21.3 41 7.5         266.25
2018-Jun-12 21:01:42 1008.300 17.8 50 7.2         266.25
2018-Jun-12 22:01:41 1009.100 14.9 58 6.7         266.25
2018-Jun-12 23:01:57 1009.600 12.4 67 6.4         266.25

Temperatura Máxima:25°    Temperatura Mínima:
Presión Máxima:1009.600 Hpa    Presión Mínima:1006.800 Hpa


Volver